Time;durP1;ratioP1;P1;durP2;ratioP2;P2;SDS_P1;SDS_P2;PMS_P1;PMS_P2;Temp;Humidity;BMP_temperature;BMP_pressure;BME280_temperature;BME280_humidity;BME280_pressure;Samples;Min_cycle;Max_cycle;Signal;HPM_P1;HPM_P2
2022/08/20 00:00:00;;;;;;;4.65;3.10;;;;;;;20.14;100.00;100732.94;690302;28;1236;-43
2022/08/20 00:00:24;;;;;;;5.30;3.23;;;;;;;20.12;100.00;100724.16;690416;28;1208;-41
2022/08/20 00:00:52;;;;;;;4.97;3.17;;;;;;;20.09;100.00;100733.16;689640;28;4428;-40
2022/08/20 00:01:12;;;;;;;4.88;3.00;;;;;;;20.05;100.00;100728.91;689954;28;1415;-42
2022/08/20 00:01:33;;;;;;;4.97;3.10;;;;;;;20.00;100.00;100731.72;692864;28;1377;-40
2022/08/20 00:01:53;;;;;;;5.13;2.88;;;;;;;19.98;100.00;100733.59;691566;28;1460;-42
2022/08/20 00:02:15;;;;;;;6.10;3.00;;;;;;;20.00;100.00;100736.19;692240;28;1329;-41
2022/08/20 00:02:53;;;;;;;4.70;2.90;;;;;;;19.97;100.00;100729.22;694173;28;1638;-40
2022/08/20 00:03:17;;;;;;;5.07;2.95;;;;;;;19.98;100.00;100727.41;694253;28;1440;-41
2022/08/20 00:03:41;;;;;;;5.32;3.05;;;;;;;20.06;100.00;100728.81;693567;28;4517;-42
2022/08/20 00:04:02;;;;;;;5.20;3.05;;;;;;;20.06;100.00;100726.16;697425;28;1202;-41
2022/08/20 00:04:23;;;;;;;5.53;2.80;;;;;;;20.05;100.00;100729.75;695655;28;1262;-42
2022/08/20 00:04:43;;;;;;;6.13;3.15;;;;;;;20.07;100.00;100730.53;696786;28;1284;-41
2022/08/20 00:05:04;;;;;;;5.57;3.23;;;;;;;20.10;100.00;100723.38;696039;28;1293;-41
2022/08/20 00:05:34;;;;;;;6.20;3.17;;;;;;;20.14;100.00;100719.66;695894;28;1257;-41
2022/08/20 00:06:05;;;;;;;5.68;3.10;;;;;;;20.12;100.00;100727.69;693820;28;1357;-41
2022/08/20 00:06:25;;;;;;;5.57;3.30;;;;;;;20.08;100.00;100726.94;694457;28;1321;-42
2022/08/20 00:06:47;;;;;;;5.25;3.20;;;;;;;20.05;100.00;100720.94;695836;28;4284;-42
2022/08/20 00:07:07;;;;;;;5.38;3.20;;;;;;;19.98;100.00;100722.09;695325;28;1496;-42
2022/08/20 00:07:28;;;;;;;5.97;3.40;;;;;;;19.95;100.00;100722.25;693412;28;1234;-41
2022/08/20 00:07:48;;;;;;;6.03;3.17;;;;;;;19.93;100.00;100721.47;692543;28;1382;-45
2022/08/20 00:08:10;;;;;;;5.65;2.90;;;;;;;19.92;100.00;100725.88;692787;28;1586;-42
2022/08/20 00:08:31;;;;;;;5.00;2.80;;;;;;;19.93;100.00;100727.63;691475;28;1357;-44
2022/08/20 00:08:51;;;;;;;4.65;2.97;;;;;;;19.93;100.00;100726.78;690111;28;1392;-42
2022/08/20 00:09:12;;;;;;;4.47;2.92;;;;;;;19.94;100.00;100721.41;690281;28;1315;-41
2022/08/20 00:09:33;;;;;;;4.60;2.73;;;;;;;19.94;100.00;100721.41;692767;28;1591;-41
2022/08/20 00:09:54;;;;;;;5.05;3.00;;;;;;;19.99;100.00;100723.84;694224;28;4327;-43
2022/08/20 00:10:14;;;;;;;4.77;3.10;;;;;;;19.97;100.00;100723.91;694770;28;1662;-42
2022/08/20 00:10:40;;;;;;;5.63;3.08;;;;;;;19.96;100.00;100722.16;693866;28;1536;-45
2022/08/20 00:11:02;;;;;;;6.75;3.17;;;;;;;19.93;100.00;100724.13;694703;28;1194;-42
2022/08/20 00:11:25;;;;;;;6.07;3.00;;;;;;;19.92;100.00;100719.72;694225;28;1255;-41
2022/08/20 00:11:46;;;;;;;4.55;2.75;;;;;;;19.92;100.00;100719.72;695511;28;1909;-41
2022/08/20 00:12:07;;;;;;;4.33;2.80;;;;;;;20.01;100.00;100717.53;697987;28;1321;-41
2022/08/20 00:12:28;;;;;;;4.97;3.00;;;;;;;20.14;100.00;100714.34;696424;28;1341;-42
2022/08/20 00:12:50;;;;;;;5.43;3.40;;;;;;;20.10;100.00;100716.25;696198;28;4372;-41
2022/08/20 00:13:14;;;;;;;5.88;3.40;;;;;;;20.05;100.00;100719.13;697460;28;1411;-42
2022/08/20 00:13:39;;;;;;;5.32;3.03;;;;;;;20.05;100.00;100713.81;694806;28;1551;-42
2022/08/20 00:14:03;;;;;;;5.40;3.20;;;;;;;20.05;100.00;100719.13;692741;28;1301;-41
2022/08/20 00:14:24;;;;;;;6.13;3.10;;;;;;;20.06;100.00;100714.69;693842;28;1339;-42
2022/08/20 00:14:44;;;;;;;5.72;3.10;;;;;;;20.07;100.00;100717.25;693670;28;1223;-48
2022/08/20 00:15:05;;;;;;;4.83;2.90;;;;;;;20.06;100.00;100714.69;694384;28;1250;-41
2022/08/20 00:15:29;;;;;;;4.65;3.20;;;;;;;20.15;100.00;100724.03;696427;28;1471;-42
2022/08/20 00:15:50;;;;;;;5.60;3.20;;;;;;;20.14;100.00;100717.00;691803;28;4402;-41
2022/08/20 00:16:12;;;;;;;5.97;3.15;;;;;;;20.07;100.00;100717.25;693943;28;3962;-41
2022/08/20 00:16:35;;;;;;;5.68;3.40;;;;;;;20.04;100.00;100721.84;694933;28;1325;-42
2022/08/20 00:16:56;;;;;;;6.03;3.20;;;;;;;20.05;100.00;100718.28;693865;28;1171;-42
2022/08/20 00:17:16;;;;;;;6.25;3.40;;;;;;;20.03;100.00;100720.97;694762;28;1439;-44
2022/08/20 00:17:37;;;;;;;5.67;3.50;;;;;;;20.00;100.00;100715.81;694960;28;1242;-42
2022/08/20 00:17:58;;;;;;;5.68;3.28;;;;;;;20.08;100.00;100718.13;693693;28;1282;-41
2022/08/20 00:18:20;;;;;;;5.53;3.38;;;;;;;20.01;100.00;100720.19;693517;28;1278;-43
2022/08/20 00:18:42;;;;;;;6.00;4.03;;;;;;;19.97;100.00;100720.41;694871;28;4573;-42
2022/08/20 00:19:06;;;;;;;6.53;3.80;;;;;;;20.00;100.00;100720.25;694024;28;1218;-44
2022/08/20 00:19:26;;;;;;;6.20;3.60;;;;;;;20.06;100.00;100715.56;695292;28;1370;-41
2022/08/20 00:19:47;;;;;;;6.32;3.60;;;;;;;20.01;100.00;100711.38;694765;28;1377;-41
2022/08/20 00:20:10;;;;;;;7.07;3.40;;;;;;;19.97;100.00;100715.94;695019;28;1372;-41
2022/08/20 00:20:36;;;;;;;6.57;3.40;;;;;;;19.97;100.00;100715.94;695382;28;1364;-41
2022/08/20 00:20:57;;;;;;;5.95;3.80;;;;;;;19.94;100.00;100715.19;694666;28;1184;-42
2022/08/20 00:21:20;;;;;;;7.13;4.20;;;;;;;19.97;100.00;100720.41;696090;28;1265;-41
2022/08/20 00:21:40;;;;;;;5.35;3.78;;;;;;;20.00;100.00;100723.75;695405;28;4363;-41
2022/08/20 00:22:03;;;;;;;6.00;3.72;;;;;;;20.09;100.00;100717.22;695333;28;1388;-42
2022/08/20 00:22:26;;;;;;;7.40;4.00;;;;;;;20.12;100.00;100713.53;693406;28;1321;-44
2022/08/20 00:22:47;;;;;;;5.30;3.53;;;;;;;20.10;100.00;100726.88;691237;28;1108;-40
2022/08/20 00:23:08;;;;;;;5.00;3.30;;;;;;;20.03;100.00;100720.97;690658;28;1620;-41
2022/08/20 00:23:29;;;;;;;5.07;3.30;;;;;;;20.00;100.00;100721.13;692352;28;1326;-41
2022/08/20 00:23:51;;;;;;;6.07;3.78;;;;;;;20.03;100.00;100723.63;692674;28;1333;-41
2022/08/20 00:24:12;;;;;;;5.63;3.22;;;;;;;20.10;100.00;100721.56;696710;28;1368;-41
2022/08/20 00:24:33;;;;;;;5.20;3.42;;;;;;;20.10;100.00;100723.38;697397;28;1372;-44
2022/08/20 00:24:54;;;;;;;5.47;3.40;;;;;;;20.14;100.00;100719.66;693442;28;4380;-42
2022/08/20 00:25:15;;;;;;;6.23;3.73;;;;;;;20.12;100.00;100722.38;695991;28;1338;-41
2022/08/20 00:25:35;;;;;;;5.78;3.70;;;;;;;20.07;100.00;100727.03;695590;28;1465;-42
2022/08/20 00:25:56;;;;;;;6.57;3.57;;;;;;;20.05;100.00;100721.78;695856;28;1407;-43
2022/08/20 00:26:16;;;;;;;6.32;3.70;;;;;;;20.00;100.00;100721.13;692431;28;1461;-42
2022/08/20 00:26:37;;;;;;;7.00;3.87;;;;;;;19.97;100.00;100726.56;690346;28;1349;-41
2022/08/20 00:26:57;;;;;;;5.95;3.80;;;;;;;19.93;100.00;100722.31;689937;28;1358;-41
2022/08/20 00:27:17;;;;;;;5.40;3.47;;;;;;;19.93;100.00;100716.16;692591;28;1292;-42
2022/08/20 00:27:38;;;;;;;7.90;3.58;;;;;;;19.93;100.00;100719.66;689490;28;4597;-42
2022/08/20 00:27:58;;;;;;;7.73;3.37;;;;;;;19.92;100.00;100723.22;690072;28;1254;-44
2022/08/20 00:28:19;;;;;;;4.90;3.42;;;;;;;19.89;100.00;100718.91;692175;28;1211;-43
2022/08/20 00:28:42;;;;;;;5.67;3.50;;;;;;;19.87;100.00;100720.78;695768;28;1368;-40
2022/08/20 00:29:03;;;;;;;6.78;3.72;;;;;;;19.87;100.00;100719.94;694207;28;1313;-43
2022/08/20 00:29:23;;;;;;;7.00;3.80;;;;;;;19.86;100.00;100727.00;695074;28;1402;-41
2022/08/20 00:29:43;;;;;;;6.67;3.53;;;;;;;19.84;100.00;100720.94;698321;28;1384;-41
2022/08/20 00:30:07;;;;;;;6.40;3.58;;;;;;;19.92;100.00;100723.22;697332;28;1183;-41
2022/08/20 00:30:27;;;;;;;5.43;3.47;;;;;;;20.01;100.00;100716.69;696268;28;1518;-43
2022/08/20 00:30:48;;;;;;;5.97;3.40;;;;;;;19.96;100.00;100722.16;696097;28;5274;-40
2022/08/20 00:31:11;;;;;;;4.75;3.47;;;;;;;19.96;100.00;100718.66;694804;28;1334;-44
2022/08/20 00:31:31;;;;;;;5.10;3.30;;;;;;;19.93;100.00;100724.13;695169;28;1246;-42
2022/08/20 00:31:52;;;;;;;4.95;3.47;;;;;;;19.93;100.00;100721.47;694950;28;1969;-41
2022/08/20 00:32:12;;;;;;;5.10;3.50;;;;;;;19.95;100.00;100719.59;694345;28;1188;-42
2022/08/20 00:32:48;;;;;;;5.95;3.60;;;;;;;19.86;100.00;100718.22;695141;28;1519;-42
2022/08/20 00:33:17;;;;;;;5.70;3.63;;;;;;;19.84;100.00;100717.38;694650;28;1343;-43
2022/08/20 00:33:38;;;;;;;6.25;3.90;;;;;;;19.87;100.00;100719.94;694057;28;4360;-46
2022/08/20 00:33:58;;;;;;;6.63;4.17;;;;;;;19.92;100.00;100722.38;695489;28;1309;-44
2022/08/20 00:34:19;;;;;;;7.95;4.75;;;;;;;19.87;100.00;100714.63;695071;28;1753;-47
2022/08/20 00:34:41;;;;;;;7.33;4.30;;;;;;;19.85;100.00;100719.97;694824;28;1174;-48
2022/08/20 00:35:01;;;;;;;6.45;4.18;;;;;;;19.81;100.00;100715.72;694387;28;1301;-44
2022/08/20 00:35:24;;;;;;;7.55;4.20;;;;;;;19.79;100.00;100719.38;694743;28;1478;-43
2022/08/20 00:35:48;;;;;;;6.57;4.30;;;;;;;19.80;100.00;100723.75;692670;28;1213;-46
2022/08/20 00:36:10;;;;;;;7.78;4.03;;;;;;;19.79;100.00;100716.72;692527;28;1433;-46
2022/08/20 00:36:31;;;;;;;8.15;4.50;;;;;;;19.71;100.00;100720.53;691721;28;1315;-45
2022/08/20 00:36:51;;;;;;;6.75;4.40;;;;;;;19.69;100.00;100716.25;692072;28;4305;-46
2022/08/20 00:37:12;;;;;;;6.43;4.23;;;;;;;19.67;100.00;100718.09;694769;28;1488;-44
2022/08/20 00:37:32;;;;;;;6.35;4.22;;;;;;;19.71;100.00;100715.22;694843;28;1255;-49
2022/08/20 00:37:53;;;;;;;6.37;4.07;;;;;;;19.70;100.00;100717.94;695401;28;1326;-45
2022/08/20 00:38:14;;;;;;;6.07;4.20;;;;;;;19.68;100.00;100725.97;694950;28;1266;-47
2022/08/20 00:38:37;;;;;;;7.30;4.70;;;;;;;19.66;100.00;100717.22;695039;28;1417;-46
2022/08/20 00:38:58;;;;;;;6.38;4.68;;;;;;;19.65;100.00;100715.50;695411;28;5372;-44
2022/08/20 00:39:18;;;;;;;6.80;4.47;;;;;;;19.65;100.00;100718.16;692944;28;1570;-48
2022/08/20 00:39:39;;;;;;;6.00;4.50;;;;;;;19.64;100.00;100723.53;693340;28;4702;-44
2022/08/20 00:39:59;;;;;;;7.53;5.00;;;;;;;19.65;100.00;100714.66;692582;28;1445;-48
2022/08/20 00:40:26;;;;;;;7.27;5.33;;;;;;;19.65;100.00;100715.50;693125;28;1413;-47
2022/08/20 00:40:54;;;;;;;7.95;5.35;;;;;;;19.58;100.00;100719.34;694673;28;1503;-46
2022/08/20 00:41:19;;;;;;;7.72;5.70;;;;;;;19.49;100.00;100715.25;693876;28;1637;-43
2022/08/20 00:41:40;;;;;;;7.97;5.65;;;;;;;19.44;100.00;100721.66;694447;28;1325;-47
2022/08/20 00:42:01;;;;;;;7.72;5.45;;;;;;;19.42;100.00;100718.25;695247;28;1210;-47
2022/08/20 00:42:21;;;;;;;8.95;5.43;;;;;;;19.46;100.00;100717.19;695308;28;1214;-44
2022/08/20 00:42:44;;;;;;;7.95;4.95;;;;;;;19.48;100.00;100712.66;694167;28;4585;-44
2022/08/20 00:43:22;;;;;;;9.13;5.50;;;;;;;19.56;100.00;100715.88;694569;28;1456;-46
2022/08/20 00:43:49;;;;;;;7.93;5.32;;;;;;;19.52;100.00;100712.50;695025;28;1381;-45
2022/08/20 00:44:18;;;;;;;8.15;5.50;;;;;;;19.49;100.00;100719.72;695011;28;1621;-47
2022/08/20 00:44:45;;;;;;;8.48;5.43;;;;;;;19.47;100.00;100718.94;695360;28;1357;-47
2022/08/20 00:45:06;;;;;;;7.97;5.65;;;;;;;19.46;100.00;100723.34;693431;28;1368;-48
2022/08/20 00:45:29;;;;;;;7.95;4.88;;;;;;;19.40;100.00;100721.81;694299;28;1342;-45
2022/08/20 00:45:54;;;;;;;6.65;4.70;;;;;;;19.35;100.00;100718.47;693759;28;4269;-49
2022/08/20 00:46:26;;;;;;;7.88;5.22;;;;;;;19.30;100.00;100717.81;694954;28;1614;-46
2022/08/20 00:46:49;;;;;;;8.10;5.60;;;;;;;19.27;100.00;100717.06;694724;28;1115;-45
2022/08/20 00:47:10;;;;;;;7.65;6.00;;;;;;;19.28;100.00;100719.66;694044;28;1194;-49
2022/08/20 00:47:30;;;;;;;8.07;5.90;;;;;;;19.28;100.00;100718.81;695257;28;1328;-43
2022/08/20 00:47:50;;;;;;;7.53;5.80;;;;;;;19.30;100.00;100715.16;694666;28;1329;-49
2022/08/20 00:48:11;;;;;;;8.13;5.60;;;;;;;19.30;100.00;100715.16;693831;28;1242;-48
2022/08/20 00:48:34;;;;;;;8.37;5.70;;;;;;;19.30;100.00;100717.81;694857;28;1321;-47
2022/08/20 00:48:56;;;;;;;7.50;5.78;;;;;;;19.30;100.00;100722.22;693354;28;4457;-50
2022/08/20 00:49:21;;;;;;;8.40;5.78;;;;;;;19.32;100.00;100718.59;694820;28;1186;-47
2022/08/20 00:49:42;;;;;;;8.18;5.70;;;;;;;19.34;100.00;100719.41;695004;28;1123;-47
2022/08/20 00:50:05;;;;;;;8.50;5.80;;;;;;;19.32;100.00;100721.25;695179;28;1438;-46
2022/08/20 00:50:32;;;;;;;8.15;6.05;;;;;;;19.33;100.00;100722.13;694903;28;1218;-48
2022/08/20 00:50:58;;;;;;;8.80;5.75;;;;;;;19.30;100.00;100724.88;693934;28;1242;-48
2022/08/20 00:51:33;;;;;;;8.00;5.97;;;;;;;19.32;100.00;100718.59;694477;28;1179;-46
2022/08/20 00:51:54;;;;;;;7.80;5.90;;;;;;;19.33;100.00;100720.34;694397;28;4561;-48
2022/08/20 00:52:18;;;;;;;8.35;5.97;;;;;;;19.36;100.00;100725.50;695216;28;1455;-48
2022/08/20 00:52:42;;;;;;;8.48;6.05;;;;;;;19.35;100.00;100723.78;694898;28;2207;-45
2022/08/20 00:53:06;;;;;;;8.02;5.68;;;;;;;19.30;100.00;100717.81;694960;28;1242;-49
2022/08/20 00:53:28;;;;;;;9.32;6.00;;;;;;;19.28;100.00;100730.25;694321;28;1513;-49
2022/08/20 00:53:48;;;;;;;10.32;6.60;;;;;;;19.26;100.00;100720.63;692320;28;1198;-49
2022/08/20 00:54:17;;;;;;;10.23;6.43;;;;;;;19.23;100.00;100721.63;691487;28;1380;-47
2022/08/20 00:54:45;;;;;;;9.18;6.25;;;;;;;19.21;100.00;100720.81;693896;28;4309;-48
2022/08/20 00:55:06;;;;;;;8.65;6.53;;;;;;;19.20;100.00;100725.28;693747;28;1191;-46
2022/08/20 00:55:28;;;;;;;8.65;6.32;;;;;;;19.20;100.00;100724.41;694315;28;1310;-45
2022/08/20 00:55:49;;;;;;;9.13;6.40;;;;;;;19.15;100.00;100718.41;694721;28;1222;-46
2022/08/20 00:56:11;;;;;;;8.50;6.10;;;;;;;19.18;100.00;100716.50;694028;28;1239;-48
2022/08/20 00:56:32;;;;;;;8.18;6.10;;;;;;;19.16;100.00;100723.66;692093;28;1259;-46
2022/08/20 00:57:02;;;;;;;11.63;6.75;;;;;;;19.15;100.00;100721.94;692579;28;1157;-48
2022/08/20 00:57:33;;;;;;;8.57;6.35;;;;;;;19.18;100.00;100720.97;691155;28;1263;-48
2022/08/20 00:57:57;;;;;;;7.43;5.72;;;;;;;19.19;100.00;100727.97;692382;28;4281;-48
2022/08/20 00:58:17;;;;;;;8.93;5.93;;;;;;;19.24;100.00;100720.69;695856;28;1330;-49
2022/08/20 00:58:41;;;;;;;9.67;6.30;;;;;;;19.31;100.00;100722.16;694527;28;1336;-48
2022/08/20 00:59:05;;;;;;;10.38;6.70;;;;;;;19.30;100.00;100723.13;694868;28;1419;-49
2022/08/20 00:59:28;;;;;;;8.90;6.38;;;;;;;19.25;100.00;100722.44;694287;28;1333;-46
2022/08/20 00:59:51;;;;;;;9.48;6.45;;;;;;;19.27;100.00;100720.56;694264;28;1375;-46
2022/08/20 01:00:17;;;;;;;8.82;6.47;;;;;;;19.34;100.00;100719.41;693525;28;1665;-45
2022/08/20 01:00:45;;;;;;;9.43;6.97;;;;;;;19.36;100.00;100722.84;694866;28;4365;-47
2022/08/20 01:01:06;;;;;;;9.10;6.88;;;;;;;19.30;100.00;100716.94;693579;28;1229;-50
2022/08/20 01:01:27;;;;;;;9.67;6.70;;;;;;;19.25;100.00;100719.78;694158;28;1203;-47
2022/08/20 01:01:48;;;;;;;10.18;6.40;;;;;;;19.26;100.00;100720.63;694937;28;998;-47
2022/08/20 01:02:13;;;;;;;8.60;6.27;;;;;;;19.22;100.00;100715.47;691734;28;1255;-48
2022/08/20 01:02:33;;;;;;;9.63;6.30;;;;;;;19.17;100.00;100717.44;691344;28;1469;-46
2022/08/20 01:02:54;;;;;;;9.13;6.30;;;;;;;19.19;100.00;100717.34;691196;28;1614;-45
2022/08/20 01:03:19;;;;;;;9.02;6.53;;;;;;;19.17;100.00;100719.22;690423;28;1603;-47
2022/08/20 01:03:41;;;;;;;8.82;6.53;;;;;;;19.16;100.00;100726.31;690958;28;4593;-47
2022/08/20 01:04:01;;;;;;;8.25;6.07;;;;;;;19.17;100.00;100721.88;692929;28;1100;-48
2022/08/20 01:04:25;;;;;;;8.97;6.27;;;;;;;19.24;100.00;100720.69;693373;28;1144;-48
2022/08/20 01:04:54;;;;;;;10.90;6.70;;;;;;;19.29;100.00;100718.72;693422;28;1201;-47
2022/08/20 01:05:15;;;;;;;10.20;6.93;;;;;;;19.36;100.00;100722.84;694531;28;1508;-47
2022/08/20 01:05:43;;;;;;;10.83;7.07;;;;;;;19.34;100.00;100719.41;694190;28;1610;-49
2022/08/20 01:06:04;;;;;;;8.65;6.38;;;;;;;19.32;100.00;100720.41;694673;28;1450;-46
2022/08/20 01:06:25;;;;;;;8.33;6.50;;;;;;;19.32;100.00;100715.94;694443;28;1388;-47
2022/08/20 01:06:46;;;;;;;9.20;6.80;;;;;;;19.29;100.00;100721.38;694865;28;4253;-47
2022/08/20 01:07:06;;;;;;;9.63;6.80;;;;;;;19.31;100.00;100722.16;694476;28;1301;-48
2022/08/20 01:07:32;;;;;;;9.60;6.87;;;;;;;19.30;100.00;100720.47;695186;28;1388;-49
2022/08/20 01:07:53;;;;;;;9.20;6.78;;;;;;;19.24;100.00;100720.69;693329;28;2102;-48
2022/08/20 01:08:16;;;;;;;9.80;6.90;;;;;;;19.20;100.00;100724.41;696129;28;1582;-49
2022/08/20 01:08:39;;;;;;;9.32;6.30;;;;;;;19.16;100.00;100723.66;695003;28;1367;-47
2022/08/20 01:09:01;;;;;;;10.23;6.60;;;;;;;19.13;100.00;100717.63;692822;28;1549;-44
2022/08/20 01:09:22;;;;;;;9.63;6.57;;;;;;;19.11;100.00;100720.34;692338;28;1214;-46
2022/08/20 01:09:43;;;;;;;9.48;6.82;;;;;;;19.10;100.00;100720.41;693097;28;4334;-49
2022/08/20 01:10:09;;;;;;;11.65;6.88;;;;;;;19.16;100.00;100722.78;694944;28;1473;-47
2022/08/20 01:10:34;;;;;;;10.27;6.80;;;;;;;19.18;100.00;100724.47;695240;28;1294;-44
2022/08/20 01:11:07;;;;;;;8.35;6.13;;;;;;;19.16;100.00;100723.66;694972;28;1413;-50
2022/08/20 01:11:32;;;;;;;10.25;6.50;;;;;;;19.17;100.00;100717.44;694536;28;1344;-45
2022/08/20 01:11:53;;;;;;;9.60;6.90;;;;;;;19.14;100.00;100720.19;694940;28;1925;-49
2022/08/20 01:12:15;;;;;;;10.27;7.10;;;;;;;19.12;100.00;100722.06;695958;28;1560;-48
2022/08/20 01:12:37;;;;;;;9.90;6.38;;;;;;;19.13;100.00;100720.25;694271;28;4307;-46
2022/08/20 01:12:58;;;;;;;8.93;6.40;;;;;;;19.16;100.00;100718.38;692182;28;1234;-47
2022/08/20 01:13:22;;;;;;;10.00;7.00;;;;;;;19.27;100.00;100720.56;690308;28;1518;-50
2022/08/20 01:13:45;;;;;;;9.63;6.85;;;;;;;19.24;100.00;100723.34;690064;28;1143;-47
2022/08/20 01:14:44;;;;;;;9.32;6.80;;;;;;;19.14;100.00;100725.50;691957;28;1393;-46
2022/08/20 01:15:07;;;;;;;9.60;6.65;;;;;;;19.10;100.00;100723.03;693692;28;1395;-48
2022/08/20 01:15:30;;;;;;;10.88;7.47;;;;;;;19.06;100.00;100719.63;694638;28;1481;-47
2022/08/20 01:15:54;;;;;;;10.32;7.32;;;;;;;19.01;100.00;100725.13;693850;28;4247;-48
2022/08/20 01:16:22;;;;;;;9.73;6.93;;;;;;;18.95;100.00;100720.06;692656;28;1477;-48
2022/08/20 01:16:43;;;;;;;9.25;7.00;;;;;;;18.93;100.00;100724.56;694209;28;1306;-49
2022/08/20 01:17:07;;;;;;;10.50;7.32;;;;;;;18.90;100.00;100722.03;693895;28;1301;-49
2022/08/20 01:17:31;;;;;;;12.15;7.80;;;;;;;18.86;100.00;100721.25;694510;28;1378;-46
2022/08/20 01:17:57;;;;;;;9.90;7.90;;;;;;;18.84;100.00;100723.13;697747;28;1313;-47
2022/08/20 01:18:23;;;;;;;11.23;7.82;;;;;;;18.86;100.00;100723.03;696838;28;1418;-48
2022/08/20 01:18:47;;;;;;;12.20;7.60;;;;;;;18.86;100.00;100715.94;696403;28;4266;-52
2022/08/20 01:19:09;;;;;;;11.15;7.95;;;;;;;18.87;100.00;100720.38;696762;28;1765;-49
2022/08/20 01:19:35;;;;;;;11.00;7.85;;;;;;;18.85;100.00;100714.22;694704;28;999;-48
2022/08/20 01:20:07;;;;;;;10.13;7.55;;;;;;;18.79;100.00;100709.16;694644;28;1531;-49
2022/08/20 01:20:32;;;;;;;10.88;7.68;;;;;;;18.78;100.00;100711.88;693872;28;1128;-45
2022/08/20 01:20:57;;;;;;;10.63;7.53;;;;;;;18.77;100.00;100713.66;694421;28;1313;-47
2022/08/20 01:21:24;;;;;;;10.98;7.18;;;;;;;18.82;100.00;100705.53;694302;28;1194;-47
2022/08/20 01:21:45;;;;;;;9.75;7.25;;;;;;;18.89;100.00;100709.72;693783;28;4373;-48
2022/08/20 01:23:25;;;;;;;10.40;7.57;;;;;;;18.94;100.00;100717.47;694306;28;1210;-45
2022/08/20 01:23:33;;;;;;;11.00;7.32;;;;;;;18.89;100.00;100709.72;694718;28;1181;-49
2022/08/20 01:24:12;;;;;;;10.55;7.70;;;;;;;18.84;100.00;100711.63;694237;28;1214;-47
2022/08/20 01:24:39;;;;;;;10.00;6.93;;;;;;;18.84;100.00;100711.63;694676;28;1336;-49
2022/08/20 01:25:08;;;;;;;10.55;6.90;;;;;;;18.84;100.00;100712.53;694793;28;5810;-46
2022/08/20 01:25:52;;;;;;;10.23;6.93;;;;;;;18.86;100.00;100712.44;694438;28;1313;-47
2022/08/20 01:26:17;;;;;;;10.50;7.68;;;;;;;18.84;100.00;100706.34;695726;28;1305;-48
2022/08/20 01:26:43;;;;;;;10.57;7.10;;;;;;;18.88;100.00;100708.88;695085;28;1471;-47
2022/08/20 01:27:05;;;;;;;9.82;7.10;;;;;;;18.90;100.00;100711.44;695070;28;1202;-49
2022/08/20 01:27:26;;;;;;;9.60;7.20;;;;;;;18.87;100.00;100715.06;693774;28;1317;-47
2022/08/20 01:27:49;;;;;;;10.63;7.38;;;;;;;18.82;100.00;100713.50;694171;28;4578;-45
2022/08/20 01:28:11;;;;;;;9.82;7.35;;;;;;;18.77;100.00;100711.00;694834;28;1500;-46
2022/08/20 01:28:42;;;;;;;9.68;7.45;;;;;;;18.75;100.00;100711.97;694240;28;1443;-44
2022/08/20 01:29:13;;;;;;;10.07;8.05;;;;;;;18.80;100.00;100712.66;693709;28;1308;-49
2022/08/20 01:29:38;;;;;;;10.52;7.95;;;;;;;18.79;100.00;100708.28;694306;28;1472;-47
2022/08/20 01:30:00;;;;;;;11.75;7.95;;;;;;;18.78;100.00;100711.88;694139;28;1556;-46
2022/08/20 01:30:23;;;;;;;11.82;7.30;;;;;;;18.79;100.00;100710.94;694100;28;1126;-45
2022/08/20 01:30:44;;;;;;;9.93;7.30;;;;;;;18.81;100.00;100709.13;693982;28;4585;-47
2022/08/20 01:31:07;;;;;;;12.02;7.97;;;;;;;18.80;100.00;100707.38;695233;28;1504;-47
2022/08/20 01:31:31;;;;;;;13.20;8.07;;;;;;;18.78;100.00;100709.25;693596;28;1258;-47
2022/08/20 01:31:51;;;;;;;12.00;7.80;;;;;;;18.78;100.00;100709.25;695375;28;1922;-48
2022/08/20 01:32:12;;;;;;;9.97;7.83;;;;;;;18.72;100.00;100708.53;694743;28;1293;-46
2022/08/20 01:32:32;;;;;;;10.63;7.80;;;;;;;18.74;100.00;100710.28;693575;28;1297;-46
2022/08/20 01:32:54;;;;;;;10.10;7.30;;;;;;;18.75;100.00;100709.31;695044;28;1444;-48
2022/08/20 01:33:18;;;;;;;11.45;7.68;;;;;;;18.79;100.00;100706.53;695756;28;1449;-47
2022/08/20 01:33:39;;;;;;;11.23;7.53;;;;;;;18.74;100.00;100700.53;693515;28;4402;-44
2022/08/20 01:34:01;;;;;;;11.95;7.60;;;;;;;18.72;100.00;100703.25;694329;28;1383;-44
2022/08/20 01:34:22;;;;;;;10.95;7.60;;;;;;;18.71;100.00;100706.81;695079;28;1398;-44
2022/08/20 01:34:42;;;;;;;10.25;7.65;;;;;;;18.71;100.00;100709.44;695025;28;1325;-48
2022/08/20 01:35:04;;;;;;;11.23;7.97;;;;;;;18.71;100.00;100701.50;693962;28;1270;-46
2022/08/20 01:35:27;;;;;;;11.40;7.90;;;;;;;18.65;100.00;100707.06;695607;28;1569;-49
2022/08/20 01:35:49;;;;;;;9.95;7.45;;;;;;;18.66;100.00;100702.59;695667;28;1210;-47
2022/08/20 01:36:10;;;;;;;9.68;7.25;;;;;;;18.68;100.00;100701.63;690257;28;1117;-43
2022/08/20 01:36:38;;;;;;;9.85;7.30;;;;;;;18.67;100.00;100710.50;689064;28;1442;-48
2022/08/20 01:36:59;;;;;;;9.93;7.55;;;;;;;18.61;100.00;100707.19;690876;28;4756;-45
2022/08/20 01:37:20;;;;;;;10.30;7.35;;;;;;;18.61;100.00;100702.78;692865;28;1254;-47
2022/08/20 01:37:40;;;;;;;10.23;6.70;;;;;;;18.62;100.00;100712.47;692889;28;1469;-47
2022/08/20 01:38:00;;;;;;;10.20;6.80;;;;;;;18.63;100.00;100702.72;694520;28;1540;-49
2022/08/20 01:38:21;;;;;;;10.85;7.35;;;;;;;18.64;100.00;100705.31;695067;28;1198;-45
2022/08/20 01:38:43;;;;;;;10.73;7.10;;;;;;;18.66;100.00;100711.44;695584;28;4886;-45
2022/08/20 01:39:06;;;;;;;8.63;6.43;;;;;;;18.66;100.00;100702.59;694896;28;1228;-47
2022/08/20 01:39:30;;;;;;;9.20;6.70;;;;;;;18.68;100.00;100706.94;698266;28;1431;-45
2022/08/20 01:39:51;;;;;;;10.45;6.95;;;;;;;18.72;100.00;100703.25;697713;28;4300;-45
2022/08/20 01:40:15;;;;;;;9.37;6.53;;;;;;;18.71;100.00;100706.81;698045;28;1333;-46
2022/08/20 01:40:54;;;;;;;9.18;6.30;;;;;;;18.75;100.00;100710.22;696867;28;1681;-48
2022/08/20 01:41:20;;;;;;;9.27;6.73;;;;;;;18.74;100.00;100702.34;695622;28;1511;-44
2022/08/20 01:42:06;;;;;;;10.13;7.03;;;;;;;18.65;100.00;100708.81;694957;28;1397;-47
2022/08/20 01:42:37;;;;;;;9.95;6.78;;;;;;;18.61;100.00;100716.03;695149;28;1520;-48
2022/08/20 01:42:57;;;;;;;9.60;6.70;;;;;;;18.59;100.00;100707.25;695310;28;4758;-46
2022/08/20 01:43:18;;;;;;;8.97;6.80;;;;;;;18.56;100.00;100715.31;695182;28;1278;-48
2022/08/20 01:43:40;;;;;;;9.27;6.63;;;;;;;18.55;100.00;100716.25;695208;28;1403;-45
2022/08/20 01:44:01;;;;;;;9.85;6.75;;;;;;;18.56;100.00;100712.69;695255;28;1294;-47
2022/08/20 01:44:23;;;;;;;9.50;6.75;;;;;;;18.58;100.00;100716.16;696219;28;1222;-48
2022/08/20 01:44:45;;;;;;;10.05;6.60;;;;;;;18.62;100.00;100716.88;695801;28;1424;-48
2022/08/20 01:45:06;;;;;;;9.43;6.22;;;;;;;18.64;100.00;100712.41;695282;28;1409;-47
2022/08/20 01:45:27;;;;;;;9.27;6.10;;;;;;;18.67;100.00;100710.50;694063;28;1435;-48
2022/08/20 01:45:47;;;;;;;7.95;5.88;;;;;;;18.71;100.00;100713.91;694824;28;4340;-48
2022/08/20 01:46:09;;;;;;;8.70;5.90;;;;;;;18.63;100.00;100716.81;694808;28;1332;-49
2022/08/20 01:46:36;;;;;;;8.23;5.97;;;;;;;18.58;100.00;100716.16;694688;28;1372;-51
2022/08/20 01:47:09;;;;;;;8.63;6.20;;;;;;;18.58;100.00;100716.16;695708;28;1293;-45
2022/08/20 01:47:31;;;;;;;8.00;5.85;;;;;;;18.57;100.00;100714.41;693282;28;1182;-49
2022/08/20 01:47:52;;;;;;;8.35;5.93;;;;;;;18.57;100.00;100714.41;695602;28;1365;-50
2022/08/20 01:48:14;;;;;;;8.30;6.30;;;;;;;18.58;100.00;100721.44;695987;28;1321;-46
2022/08/20 01:48:37;;;;;;;7.68;5.70;;;;;;;18.53;100.00;100724.25;694906;28;1625;-48
2022/08/20 01:48:59;;;;;;;7.82;5.70;;;;;;;18.51;100.00;100722.56;693183;28;4597;-48
2022/08/20 01:49:24;;;;;;;9.05;6.20;;;;;;;18.52;100.00;100717.22;695022;28;1454;-46
2022/08/20 01:49:50;;;;;;;8.20;5.68;;;;;;;18.55;100.00;100721.53;695335;28;1142;-45
2022/08/20 01:50:21;;;;;;;7.65;5.53;;;;;;;18.57;100.00;100724.13;695210;28;1167;-48
2022/08/20 01:51:00;;;;;;;8.13;5.45;;;;;;;18.60;100.00;100724.03;694302;28;1230;-47